Time;durP1;ratioP1;P1;durP2;ratioP2;P2;SDS_P1;SDS_P2;PMS_P1;PMS_P2;Temp;Humidity;BMP_temperature;BMP_pressure;BME280_temperature;BME280_humidity;BME280_pressure;Samples;Min_cycle;Max_cycle;Signal;HPM_P1;HPM_P2
2022/12/14 00:00:40;;;;;;;16.52;11.73;;;;;;;;;;5092653;28;20200;-56
2022/12/14 00:03:07;;;;;;;16.67;11.13;;;;;;;;;;5092792;28;20583;-58
2022/12/14 00:05:34;;;;;;;15.45;11.10;;;;;;;;;;5092731;28;20185;-58
2022/12/14 00:08:03;;;;;;;16.25;11.55;;;;;;;;;;5092520;28;20197;-57
2022/12/14 00:10:30;;;;;;;14.55;10.48;;;;;;;;;;5092895;28;20225;-58
2022/12/14 00:12:58;;;;;;;18.08;11.73;;;;;;;;;;5092791;28;20246;-58
2022/12/14 00:15:25;;;;;;;16.08;11.30;;;;;;;;;;5092769;28;20189;-57
2022/12/14 00:17:52;;;;;;;17.20;11.55;;;;;;;;;;5092647;28;20548;-58
2022/12/14 00:20:19;;;;;;;15.98;11.23;;;;;;;;;;5092454;28;20193;-58
2022/12/14 00:22:46;;;;;;;13.27;10.30;;;;;;;;;;5094394;28;20307;-58
2022/12/14 00:25:14;;;;;;;17.38;11.18;;;;;;;;;;5096587;28;20556;-58
2022/12/14 00:27:43;;;;;;;17.80;11.38;;;;;;;;;;5096479;28;20197;-58
2022/12/14 00:30:10;;;;;;;17.60;11.25;;;;;;;;;;5096315;28;20193;-58
2022/12/14 00:32:37;;;;;;;15.68;11.38;;;;;;;;;;5096249;28;20193;-58
2022/12/14 00:35:05;;;;;;;16.85;11.32;;;;;;;;;;5096064;28;20189;-57
2022/12/14 00:37:32;;;;;;;17.33;10.20;;;;;;;;;;5096334;28;20254;-59
2022/12/14 00:39:59;;;;;;;17.65;9.65;;;;;;;;;;5096241;28;20189;-57
2022/12/14 00:42:27;;;;;;;18.45;11.57;;;;;;;;;;5096074;28;20680;-58
2022/12/14 00:44:54;;;;;;;16.10;10.52;;;;;;;;;;5096078;28;20246;-55
2022/12/14 00:47:21;;;;;;;16.20;11.35;;;;;;;;;;5095683;28;20239;-59
2022/12/14 00:49:48;;;;;;;15.35;10.95;;;;;;;;;;5095787;28;20189;-58
2022/12/14 00:52:15;;;;;;;17.60;10.32;;;;;;;;;;5095823;28;20674;-59
2022/12/14 00:54:43;;;;;;;16.17;10.90;;;;;;;;;;5095935;28;20193;-60
2022/12/14 00:57:10;;;;;;;17.63;11.43;;;;;;;;;;5095734;28;20224;-58
2022/12/14 00:59:38;;;;;;;14.95;10.13;;;;;;;;;;5095794;28;20216;-59
2022/12/14 01:02:06;;;;;;;16.02;10.70;;;;;;;;;;5095460;28;20209;-58
2022/12/14 01:04:33;;;;;;;17.60;9.73;;;;;;;;;;5095555;28;20720;-60
2022/12/14 01:07:00;;;;;;;16.77;10.10;;;;;;;;;;5095484;28;20652;-60
2022/12/14 01:09:27;;;;;;;20.38;10.80;;;;;;;;;;5095615;28;20184;-59
2022/12/14 01:11:54;;;;;;;22.52;11.10;;;;;;;;;;5095528;28;20185;-58
2022/12/14 01:14:22;;;;;;;15.70;10.38;;;;;;;;;;5095529;28;20220;-60
2022/12/14 01:16:50;;;;;;;15.52;10.88;;;;;;;;;;5095345;28;20204;-58
2022/12/14 01:19:18;;;;;;;13.40;9.52;;;;;;;;;;5095549;28;20192;-59
2022/12/14 01:21:45;;;;;;;16.50;10.30;;;;;;;;;;5095374;28;20193;-60
2022/12/14 01:24:12;;;;;;;15.88;10.27;;;;;;;;;;5095362;28;20552;-60
2022/12/14 01:26:39;;;;;;;15.25;9.60;;;;;;;;;;5095208;28;20246;-60
2022/12/14 01:29:07;;;;;;;15.27;10.32;;;;;;;;;;5094988;28;20189;-59
2022/12/14 01:31:35;;;;;;;14.90;10.48;;;;;;;;;;5095327;28;20192;-61
2022/12/14 01:34:04;;;;;;;16.13;11.00;;;;;;;;;;5093841;28;20223;-60
2022/12/14 01:36:32;;;;;;;16.88;11.52;;;;;;;;;;5095194;28;20200;-62
2022/12/14 01:39:00;;;;;;;18.55;12.90;;;;;;;;;;5095010;28;20185;-59
2022/12/14 01:41:28;;;;;;;13.82;11.00;;;;;;;;;;5094861;28;20644;-60
2022/12/14 01:43:55;;;;;;;21.65;13.13;;;;;;;;;;5094698;28;20557;-60
2022/12/14 01:46:26;;;;;;;17.38;10.43;;;;;;;;;;5094792;28;20216;-59
2022/12/14 01:48:54;;;;;;;16.05;9.98;;;;;;;;;;5094711;28;20228;-60
2022/12/14 01:51:23;;;;;;;12.25;9.30;;;;;;;;;;5094768;28;20185;-60
2022/12/14 01:53:50;;;;;;;19.58;12.13;;;;;;;;;;5094736;28;20270;-60
2022/12/14 01:56:18;;;;;;;15.18;10.68;;;;;;;;;;5094448;28;20228;-60
2022/12/14 01:58:46;;;;;;;18.23;10.63;;;;;;;;;;5094716;28;20544;-59
2022/12/14 02:01:13;;;;;;;19.50;12.18;;;;;;;;;;5094674;28;20221;-58
2022/12/14 02:03:42;;;;;;;18.92;12.20;;;;;;;;;;5094484;28;20216;-60
2022/12/14 02:06:12;;;;;;;15.00;10.70;;;;;;;;;;5094452;28;20189;-60
2022/12/14 02:08:42;;;;;;;16.88;10.82;;;;;;;;;;5094304;28;20238;-59
2022/12/14 02:11:09;;;;;;;16.38;10.82;;;;;;;;;;5094599;28;20189;-59
2022/12/14 02:13:37;;;;;;;17.05;11.60;;;;;;;;;;5094224;28;20201;-58
2022/12/14 02:16:05;;;;;;;16.70;11.70;;;;;;;;;;5094320;28;20189;-61
2022/12/14 02:18:32;;;;;;;16.27;10.95;;;;;;;;;;5094251;28;20596;-60
2022/12/14 02:21:18;;;;;;;19.17;10.75;;;;;;;;;;5094226;28;20192;-60
2022/12/14 02:23:59;;;;;;;17.02;10.35;;;;;;;;;;5094276;28;20227;-59
2022/12/14 02:26:35;;;;;;;14.65;9.90;;;;;;;;;;5094269;28;20189;-60
2022/12/14 02:29:08;;;;;;;13.85;10.10;;;;;;;;;;5094091;28;20234;-60
2022/12/14 02:31:41;;;;;;;15.70;9.82;;;;;;;;;;5093942;28;20196;-59
2022/12/14 02:34:13;;;;;;;16.38;10.68;;;;;;;;;;5094116;28;20189;-60
2022/12/14 02:36:42;;;;;;;15.00;9.40;;;;;;;;;;5094021;28;20199;-60
2022/12/14 02:39:12;;;;;;;13.50;9.90;;;;;;;;;;5093708;28;20200;-60
2022/12/14 02:41:43;;;;;;;13.32;9.13;;;;;;;;;;5093846;28;20197;-60
2022/12/14 02:44:17;;;;;;;14.68;9.15;;;;;;;;;;5093556;28;20258;-60
2022/12/14 02:46:50;;;;;;;15.13;11.10;;;;;;;;;;5093374;28;20637;-60
2022/12/14 02:49:23;;;;;;;16.48;10.27;;;;;;;;;;5093816;28;20197;-60
2022/12/14 02:51:55;;;;;;;14.00;9.90;;;;;;;;;;5093608;28;20228;-57
2022/12/14 02:54:26;;;;;;;15.35;9.65;;;;;;;;;;5093666;28;20238;-57
2022/12/14 02:56:56;;;;;;;12.52;9.48;;;;;;;;;;5093438;28;20254;-60
2022/12/14 02:59:25;;;;;;;16.17;9.50;;;;;;;;;;5093716;28;20621;-59
2022/12/14 03:01:53;;;;;;;14.00;9.60;;;;;;;;;;5093602;28;20189;-57
2022/12/14 03:04:20;;;;;;;13.20;9.68;;;;;;;;;;5093413;28;20227;-57
2022/12/14 03:06:53;;;;;;;17.50;10.15;;;;;;;;;;5093395;28;20196;-57
2022/12/14 03:09:20;;;;;;;14.38;9.15;;;;;;;;;;5093581;28;20193;-57
2022/12/14 03:11:54;;;;;;;14.13;9.77;;;;;;;;;;5093440;28;20199;-60
2022/12/14 03:14:23;;;;;;;15.23;9.60;;;;;;;;;;5093339;28;20295;-60
2022/12/14 03:16:52;;;;;;;15.68;9.30;;;;;;;;;;5093265;28;20189;-58
2022/12/14 03:19:22;;;;;;;15.30;9.77;;;;;;;;;;5093218;28;20185;-60
2022/12/14 03:21:50;;;;;;;18.48;10.80;;;;;;;;;;5093089;28;20189;-60
2022/12/14 03:24:19;;;;;;;19.30;11.88;;;;;;;;;;5093015;28;20225;-60
2022/12/14 03:26:48;;;;;;;16.15;11.07;;;;;;;;;;5093225;28;20195;-60
2022/12/14 03:29:19;;;;;;;15.32;10.23;;;;;;;;;;5093105;28;20241;-60
2022/12/14 03:31:49;;;;;;;13.50;9.40;;;;;;;;;;5093089;28;20560;-59
2022/12/14 03:34:18;;;;;;;18.02;10.57;;;;;;;;;;5092990;28;20326;-60
2022/12/14 03:36:48;;;;;;;16.15;9.65;;;;;;;;;;5093270;28;20196;-60
2022/12/14 03:39:19;;;;;;;15.40;9.55;;;;;;;;;;5092924;28;20676;-59
2022/12/14 03:41:48;;;;;;;12.07;8.35;;;;;;;;;;5093025;28;20193;-59
2022/12/14 03:44:19;;;;;;;18.02;9.57;;;;;;;;;;5092887;28;20599;-58
2022/12/14 03:46:53;;;;;;;13.60;9.20;;;;;;;;;;5092688;28;20216;-60
2022/12/14 03:49:24;;;;;;;16.00;10.25;;;;;;;;;;5093056;28;20234;-60
2022/12/14 03:51:56;;;;;;;17.80;11.70;;;;;;;;;;5093055;28;20193;-59
2022/12/14 03:54:26;;;;;;;15.50;10.55;;;;;;;;;;5092911;28;20193;-59
2022/12/14 03:56:56;;;;;;;20.63;10.48;;;;;;;;;;5093186;28;20196;-60
2022/12/14 03:59:27;;;;;;;14.15;10.00;;;;;;;;;;5097080;28;20551;-56
2022/12/14 04:01:59;;;;;;;17.05;9.32;;;;;;;;;;5097223;28;20559;-60
2022/12/14 04:04:31;;;;;;;13.95;8.63;;;;;;;;;;5096687;28;20683;-60
2022/12/14 04:07:00;;;;;;;16.63;9.90;;;;;;;;;;5096702;28;20320;-60
2022/12/14 04:09:31;;;;;;;14.85;9.05;;;;;;;;;;5096650;28;20193;-57
2022/12/14 04:20:24;;;;;;;14.80;9.25;;;;;;;;;;5096577;28;20196;-59
2022/12/14 04:22:54;;;;;;;16.50;10.52;;;;;;;;;;5096499;28;20193;-59
2022/12/14 04:29:55;;;;;;;14.38;9.32;;;;;;;;;;5096472;28;20200;-59
2022/12/14 04:30:59;;;;;;;14.00;9.23;;;;;;;;;;5096269;28;20189;-60
2022/12/14 04:36:13;;;;;;;17.67;10.02;;;;;;;;;;5096196;28;20204;-59
2022/12/14 04:38:40;;;;;;;15.48;9.90;;;;;;;;;;5095944;28;20721;-57
2022/12/14 04:41:09;;;;;;;13.50;8.90;;;;;;;;;;5096291;28;20653;-60
2022/12/14 04:43:38;;;;;;;15.18;9.40;;;;;;;;;;5096121;28;20220;-56
2022/12/14 04:46:06;;;;;;;15.85;9.93;;;;;;;;;;5096194;28;20357;-60
2022/12/14 04:48:36;;;;;;;15.35;9.23;;;;;;;;;;5096060;28;20224;-60
2022/12/14 04:51:06;;;;;;;13.32;8.60;;;;;;;;;;5095933;28;20228;-60
2022/12/14 04:53:36;;;;;;;13.68;8.80;;;;;;;;;;5095807;28;20280;-59
2022/12/14 04:56:07;;;;;;;11.52;8.75;;;;;;;;;;5095917;28;20189;-59
2022/12/14 04:58:34;;;;;;;17.85;10.80;;;;;;;;;;5095886;28;20710;-57
2022/12/14 05:01:09;;;;;;;14.85;8.85;;;;;;;;;;5095755;28;20193;-58
2022/12/14 05:03:38;;;;;;;14.02;8.73;;;;;;;;;;5095509;28;20322;-59
2022/12/14 05:06:09;;;;;;;13.68;9.18;;;;;;;;;;5095776;28;20193;-60
2022/12/14 05:08:45;;;;;;;15.60;9.52;;;;;;;;;;5095524;28;20193;-55
2022/12/14 05:11:16;;;;;;;13.13;9.82;;;;;;;;;;5095606;28;20232;-57
2022/12/14 05:13:46;;;;;;;16.80;9.90;;;;;;;;;;5095352;28;20189;-55
2022/12/14 05:16:16;;;;;;;14.48;9.38;;;;;;;;;;5095311;28;20193;-58
2022/12/14 05:18:44;;;;;;;20.33;10.63;;;;;;;;;;5095311;28;20663;-59
2022/12/14 05:21:45;;;;;;;14.32;10.40;;;;;;;;;;5095487;28;20259;-61
2022/12/14 05:24:01;;;;;;;17.98;9.90;;;;;;;;;;5094964;28;20213;-59
2022/12/14 05:26:28;;;;;;;14.00;10.15;;;;;;;;;;5095236;28;20227;-59
2022/12/14 05:28:55;;;;;;;12.93;8.95;;;;;;;;;;5095081;28;20185;-58
2022/12/14 05:31:22;;;;;;;13.13;9.00;;;;;;;;;;5095260;28;20192;-58
2022/12/14 05:33:49;;;;;;;13.98;9.45;;;;;;;;;;5095140;28;20227;-61
2022/12/14 05:36:17;;;;;;;14.07;8.65;;;;;;;;;;5095045;28;20711;-59
2022/12/14 05:38:44;;;;;;;17.25;10.35;;;;;;;;;;5094920;28;20281;-59
2022/12/14 05:41:13;;;;;;;14.10;9.23;;;;;;;;;;5094754;28;20683;-58
2022/12/14 05:43:40;;;;;;;14.65;10.68;;;;;;;;;;5094930;28;20213;-59
2022/12/14 05:46:07;;;;;;;15.60;9.73;;;;;;;;;;5094783;28;20645;-58
2022/12/14 05:48:34;;;;;;;16.42;9.80;;;;;;;;;;5094885;28;20198;-57
2022/12/14 05:51:06;;;;;;;16.38;10.50;;;;;;;;;;5094547;28;20280;-56
2022/12/14 05:53:33;;;;;;;14.43;9.45;;;;;;;;;;5094601;28;20193;-59
2022/12/14 05:56:00;;;;;;;13.02;9.60;;;;;;;;;;5094554;28;20193;-58
2022/12/14 05:58:28;;;;;;;16.33;11.02;;;;;;;;;;5094702;28;20224;-58
2022/12/14 06:00:59;;;;;;;19.17;11.25;;;;;;;;;;5094876;28;20636;-58
2022/12/14 06:03:27;;;;;;;15.43;10.50;;;;;;;;;;5094403;28;20185;-59
2022/12/14 06:05:54;;;;;;;16.23;11.02;;;;;;;;;;5094420;28;20190;-59
2022/12/14 06:08:21;;;;;;;13.52;9.82;;;;;;;;;;5094269;28;20224;-58
2022/12/14 06:10:48;;;;;;;14.73;10.18;;;;;;;;;;5094260;28;20195;-60
2022/12/14 06:13:15;;;;;;;19.10;10.38;;;;;;;;;;5094408;28;20189;-58
2022/12/14 06:15:43;;;;;;;13.00;9.50;;;;;;;;;;5094086;28;20204;-58
2022/12/14 06:18:10;;;;;;;13.50;10.15;;;;;;;;;;5094254;28;20263;-58
2022/12/14 06:20:37;;;;;;;14.32;10.27;;;;;;;;;;5093486;28;20243;-58
2022/12/14 06:23:04;;;;;;;17.85;11.02;;;;;;;;;;5094018;28;20223;-56
2022/12/14 06:25:31;;;;;;;15.27;10.82;;;;;;;;;;5094166;28;20217;-58
2022/12/14 06:27:58;;;;;;;15.43;10.80;;;;;;;;;;5093941;28;20189;-58
2022/12/14 06:30:26;;;;;;;16.20;11.45;;;;;;;;;;5094105;28;20608;-57
2022/12/14 06:32:54;;;;;;;16.88;10.23;;;;;;;;;;5093845;28;20200;-60
2022/12/14 06:35:21;;;;;;;14.23;10.00;;;;;;;;;;5093660;28;20193;-58
2022/12/14 06:37:48;;;;;;;16.38;10.70;;;;;;;;;;5094042;28;20613;-57
2022/12/14 06:40:15;;;;;;;15.95;11.18;;;;;;;;;;5093748;28;20196;-57
2022/12/14 06:42:43;;;;;;;13.85;10.55;;;;;;;;;;5093859;28;20614;-57
2022/12/14 06:45:10;;;;;;;17.80;11.55;;;;;;;;;;5093648;28;20212;-58
2022/12/14 06:47:37;;;;;;;15.57;11.32;;;;;;;;;;5093468;28;20303;-59
2022/12/14 06:50:06;;;;;;;18.88;12.02;;;;;;;;;;5093410;28;20197;-58
2022/12/14 06:52:33;;;;;;;17.42;11.65;;;;;;;;;;5093703;28;20272;-59
2022/12/14 06:55:00;;;;;;;20.30;13.30;;;;;;;;;;5093639;28;20197;-59
2022/12/14 06:57:27;;;;;;;17.45;12.55;;;;;;;;;;5093551;28;20197;-57
2022/12/14 06:59:54;;;;;;;21.92;12.80;;;;;;;;;;5093369;28;20238;-58
2022/12/14 07:02:21;;;;;;;17.88;12.48;;;;;;;;;;5093273;28;20552;-55
2022/12/14 07:04:48;;;;;;;14.65;11.05;;;;;;;;;;5093312;28;20227;-59
2022/12/14 07:07:16;;;;;;;21.23;10.98;;;;;;;;;;5093319;28;20242;-58
2022/12/14 07:09:44;;;;;;;18.23;11.88;;;;;;;;;;5093301;28;20276;-57
2022/12/14 07:12:11;;;;;;;19.58;12.60;;;;;;;;;;5093329;28;20260;-59
2022/12/14 07:14:38;;;;;;;17.38;11.65;;;;;;;;;;5093215;28;20193;-58
2022/12/14 07:17:05;;;;;;;21.98;12.73;;;;;;;;;;5093071;28;20197;-57
2022/12/14 07:19:32;;;;;;;15.82;11.05;;;;;;;;;;5093294;28;20652;-60
2022/12/14 07:22:02;;;;;;;24.58;12.23;;;;;;;;;;5093044;28;20288;-58
2022/12/14 07:24:31;;;;;;;20.17;13.13;;;;;;;;;;5093346;28;20239;-59
2022/12/14 07:26:59;;;;;;;20.33;13.38;;;;;;;;;;5093275;28;20196;-56
2022/12/14 07:29:26;;;;;;;20.90;13.02;;;;;;;;;;5092959;28;20189;-57
2022/12/14 07:31:53;;;;;;;21.02;14.02;;;;;;;;;;5091955;28;20193;-59
2022/12/14 07:34:20;;;;;;;18.13;11.77;;;;;;;;;;5093026;28;20193;-58
2022/12/14 07:36:50;;;;;;;19.00;12.77;;;;;;;;;;5092951;28;20219;-58
2022/12/14 07:39:17;;;;;;;21.05;12.88;;;;;;;;;;5093067;28;20599;-57
2022/12/14 07:41:46;;;;;;;22.70;12.85;;;;;;;;;;5092854;28;20656;-58
2022/12/14 07:44:13;;;;;;;18.85;11.25;;;;;;;;;;5092635;28;20271;-56
2022/12/14 07:46:41;;;;;;;23.33;12.48;;;;;;;;;;5092620;28;20696;-59
2022/12/14 07:49:08;;;;;;;16.58;11.55;;;;;;;;;;5092906;28;20193;-58
2022/12/14 07:51:36;;;;;;;19.58;13.05;;;;;;;;;;5092776;28;20192;-58
2022/12/14 07:54:03;;;;;;;18.15;11.00;;;;;;;;;;5092776;28;20288;-58
2022/12/14 07:56:31;;;;;;;19.35;11.75;;;;;;;;;;5092702;28;20193;-55
2022/12/14 07:59:00;;;;;;;18.23;11.23;;;;;;;;;;5092476;28;20215;-58
2022/12/14 08:01:28;;;;;;;15.63;10.40;;;;;;;;;;5092694;28;20246;-58
2022/12/14 08:03:56;;;;;;;20.02;11.77;;;;;;;;;;5092668;28;20185;-58
2022/12/14 08:06:24;;;;;;;20.85;11.75;;;;;;;;;;5092500;28;20193;-58
2022/12/14 08:08:52;;;;;;;14.52;10.90;;;;;;;;;;5092541;28;20285;-57
2022/12/14 08:11:21;;;;;;;16.65;11.13;;;;;;;;;;5092328;28;20214;-65
2022/12/14 08:13:48;;;;;;;17.55;12.73;;;;;;;;;;5092186;28;20250;-68
2022/12/14 08:16:16;;;;;;;15.90;12.05;;;;;;;;;;5092354;28;20521;-71
2022/12/14 08:18:44;;;;;;;18.83;12.38;;;;;;;;;;5094650;28;20705;-61
2022/12/14 08:21:12;;;;;;;17.70;12.75;;;;;;;;;;5097770;28;20633;-60
2022/12/14 08:23:40;;;;;;;21.42;14.23;;;;;;;;;;5092256;28;20292;-61
2022/12/14 08:26:07;;;;;;;22.50;13.52;;;;;;;;;;5092542;28;20572;-62
2022/12/14 08:28:35;;;;;;;20.02;12.82;;;;;;;;;;5092403;28;20288;-62
2022/12/14 08:31:04;;;;;;;19.52;13.68;;;;;;;;;;5092621;28;20193;-61
2022/12/14 08:33:32;;;;;;;22.98;13.50;;;;;;;;;;5092401;28;20668;-67
2022/12/14 08:36:04;;;;;;;21.73;13.80;;;;;;;;;;5091979;28;20225;-69
2022/12/14 08:38:31;;;;;;;20.33;13.55;;;;;;;;;;5097698;28;20177;-69
2022/12/14 08:41:02;;;;;;;22.67;12.95;;;;;;;;;;5092190;28;20607;-66
2022/12/14 08:43:29;;;;;;;18.67;13.00;;;;;;;;;;5093394;28;20189;-65
2022/12/14 08:45:56;;;;;;;16.42;11.15;;;;;;;;;;5095634;28;20245;-64
2022/12/14 08:48:23;;;;;;;19.27;12.15;;;;;;;;;;5095725;28;20231;-60
2022/12/14 08:50:51;;;;;;;17.30;10.98;;;;;;;;;;5095537;28;20189;-60
2022/12/14 08:53:18;;;;;;;17.80;12.77;;;;;;;;;;5095189;28;20745;-60
2022/12/14 08:55:45;;;;;;;16.20;11.90;;;;;;;;;;5095559;28;20200;-60
2022/12/14 08:58:13;;;;;;;17.65;12.82;;;;;;;;;;5095374;28;20279;-60
2022/12/14 09:00:40;;;;;;;19.02;12.80;;;;;;;;;;5095470;28;20185;-60
2022/12/14 09:03:07;;;;;;;22.33;13.32;;;;;;;;;;5095367;28;20242;-60
2022/12/14 09:05:34;;;;;;;20.30;12.73;;;;;;;;;;5095273;28;20225;-60
2022/12/14 09:08:02;;;;;;;18.75;12.60;;;;;;;;;;5095241;28;20276;-60
2022/12/14 09:10:29;;;;;;;17.58;12.18;;;;;;;;;;5095477;28;20620;-60
2022/12/14 09:12:57;;;;;;;19.17;13.05;;;;;;;;;;5095284;28;20205;-61
2022/12/14 09:15:23;;;;;;;21.73;12.80;;;;;;;;;;5095318;28;20192;-61
2022/12/14 09:17:50;;;;;;;19.05;11.95;;;;;;;;;;5095084;28;20270;-60
2022/12/14 09:20:18;;;;;;;21.35;12.77;;;;;;;;;;5095289;28;20711;-61
2022/12/14 09:22:45;;;;;;;18.33;12.77;;;;;;;;;;5095349;28;20189;-60
2022/12/14 09:25:13;;;;;;;18.70;12.98;;;;;;;;;;5095224;28;20304;-61
2022/12/14 09:27:40;;;;;;;18.58;12.40;;;;;;;;;;5095184;28;20291;-61
2022/12/14 09:30:07;;;;;;;21.92;13.80;;;;;;;;;;5095153;28;20294;-61
2022/12/14 09:32:34;;;;;;;21.15;13.98;;;;;;;;;;5094984;28;20185;-60
2022/12/14 09:35:01;;;;;;;19.70;12.50;;;;;;;;;;5095168;28;20282;-61
2022/12/14 09:37:28;;;;;;;19.40;11.90;;;;;;;;;;5094963;28;20220;-60
2022/12/14 09:39:55;;;;;;;19.80;12.25;;;;;;;;;;5095077;28;20229;-61
2022/12/14 09:42:35;;;;;;;18.52;12.90;;;;;;;;;;5094814;28;20195;-61
2022/12/14 09:45:04;;;;;;;16.10;12.10;;;;;;;;;;5094729;28;20212;-62
2022/12/14 09:47:33;;;;;;;17.02;11.10;;;;;;;;;;5094636;28;20213;-61
2022/12/14 09:50:02;;;;;;;18.27;12.02;;;;;;;;;;5094955;28;20280;-61
2022/12/14 09:52:34;;;;;;;20.75;11.95;;;;;;;;;;5094596;28;20703;-61
2022/12/14 09:55:02;;;;;;;17.83;12.13;;;;;;;;;;5093731;28;20193;-61
2022/12/14 09:57:33;;;;;;;16.15;12.45;;;;;;;;;;5094475;28;20270;-61
2022/12/14 10:00:00;;;;;;;17.30;13.15;;;;;;;;;;5094789;28;20224;-61
2022/12/14 10:02:38;;;;;;;16.88;11.55;;;;;;;;;;5094599;28;20186;-61
2022/12/14 10:05:18;;;;;;;18.02;12.32;;;;;;;;;;5094402;28;20213;-60
2022/12/14 10:07:50;;;;;;;19.55;12.27;;;;;;;;;;5094223;28;20196;-61
2022/12/14 10:10:20;;;;;;;17.10;11.25;;;;;;;;;;5094452;28;20203;-61
2022/12/14 10:12:52;;;;;;;19.40;12.25;;;;;;;;;;5094357;28;20193;-61
2022/12/14 10:15:23;;;;;;;20.67;12.00;;;;;;;;;;5094277;28;20647;-61
2022/12/14 10:18:00;;;;;;;25.38;14.55;;;;;;;;;;5094198;28;20289;-60
2022/12/14 10:20:31;;;;;;;20.55;13.75;;;;;;;;;;5094071;28;20188;-61
2022/12/14 10:22:58;;;;;;;14.63;11.27;;;;;;;;;;5094232;28;20193;-60
2022/12/14 10:25:26;;;;;;;15.15;11.60;;;;;;;;;;5093969;28;20219;-61
2022/12/14 10:27:57;;;;;;;17.00;12.18;;;;;;;;;;5093943;28;20191;-61
2022/12/14 10:30:24;;;;;;;20.35;11.60;;;;;;;;;;5093956;28;20220;-60
2022/12/14 10:32:52;;;;;;;16.50;11.50;;;;;;;;;;5093571;28;20648;-59
2022/12/14 10:35:20;;;;;;;14.52;10.90;;;;;;;;;;5093888;28;20191;-59
2022/12/14 10:37:50;;;;;;;18.55;12.18;;;;;;;;;;5093695;28;20601;-59
2022/12/14 10:40:20;;;;;;;17.10;12.63;;;;;;;;;;5093768;28;20189;-59
2022/12/14 10:42:52;;;;;;;19.40;11.43;;;;;;;;;;5093927;28;20246;-59
2022/12/14 10:45:27;;;;;;;20.20;11.60;;;;;;;;;;5093258;28;20208;-62
2022/12/14 10:47:57;;;;;;;20.15;13.18;;;;;;;;;;5093292;28;20220;-61
2022/12/14 10:50:27;;;;;;;20.02;13.00;;;;;;;;;;5093530;28;20201;-62
2022/12/14 10:52:55;;;;;;;17.88;13.23;;;;;;;;;;5093474;28;20288;-63
2022/12/14 10:55:24;;;;;;;14.27;11.20;;;;;;;;;;5093464;28;20192;-59
2022/12/14 10:57:51;;;;;;;17.55;11.30;;;;;;;;;;5103448;28;20189;-63
2022/12/14 11:00:18;;;;;;;16.77;12.15;;;;;;;;;;5106711;28;20265;-63
2022/12/14 11:02:48;;;;;;;19.25;13.70;;;;;;;;;;5113700;28;20188;-67
2022/12/14 11:05:22;;;;;;;23.10;13.75;;;;;;;;;;5113617;28;20222;-58
2022/12/14 11:07:49;;;;;;;16.65;12.25;;;;;;;;;;5113283;28;20188;-58
2022/12/14 11:10:17;;;;;;;19.40;12.38;;;;;;;;;;5114014;28;20199;-59
2022/12/14 11:12:54;;;;;;;19.30;12.95;;;;;;;;;;5113609;28;20191;-59
2022/12/14 11:15:23;;;;;;;21.98;12.88;;;;;;;;;;5113354;28;20283;-58
2022/12/14 11:17:59;;;;;;;16.88;11.07;;;;;;;;;;5113566;28;20598;-61
2022/12/14 11:20:26;;;;;;;20.50;12.95;;;;;;;;;;5113324;28;20729;-55
2022/12/14 11:22:54;;;;;;;21.67;13.30;;;;;;;;;;5112845;28;20381;-67
2022/12/14 11:25:28;;;;;;;17.80;13.27;;;;;;;;;;5113440;28;20216;-68
2022/12/14 11:27:55;;;;;;;17.52;12.00;;;;;;;;;;5113332;28;20288;-66
2022/12/14 11:30:22;;;;;;;18.05;11.68;;;;;;;;;;5113373;28;20191;-62
2022/12/14 11:32:49;;;;;;;24.08;12.15;;;;;;;;;;5113260;28;20275;-64
2022/12/14 11:35:19;;;;;;;16.40;11.63;;;;;;;;;;5113131;28;20192;-66
2022/12/14 11:37:48;;;;;;;19.48;13.60;;;;;;;;;;5112811;28;20188;-66
2022/12/14 11:40:20;;;;;;;13.75;10.45;;;;;;;;;;5113324;28;20659;-63
2022/12/14 11:42:48;;;;;;;17.90;12.30;;;;;;;;;;5112866;28;20591;-63
2022/12/14 11:45:21;;;;;;;22.02;12.35;;;;;;;;;;5112999;28;20230;-68
2022/12/14 11:48:08;;;;;;;19.55;13.13;;;;;;;;;;5112650;28;20220;-59
2022/12/14 11:50:36;;;;;;;19.45;11.60;;;;;;;;;;5112972;28;20291;-67
2022/12/14 11:53:04;;;;;;;19.15;12.55;;;;;;;;;;5113178;28;20188;-68
2022/12/14 11:55:32;;;;;;;18.02;11.77;;;;;;;;;;5113104;28;20191;-65
2022/12/14 11:57:59;;;;;;;14.90;11.82;;;;;;;;;;5099422;28;20181;-65
2022/12/14 12:00:27;;;;;;;18.05;13.15;;;;;;;;;;5092508;28;20659;-59
2022/12/14 12:03:00;;;;;;;17.75;11.93;;;;;;;;;;5092774;28;20284;-60
2022/12/14 12:05:27;;;;;;;16.38;11.40;;;;;;;;;;5092172;28;20217;-63
2022/12/14 12:07:57;;;;;;;16.85;11.77;;;;;;;;;;5094982;28;20216;-63
2022/12/14 12:10:25;;;;;;;16.45;11.57;;;;;;;;;;5092426;28;20199;-67
2022/12/14 12:12:53;;;;;;;15.65;11.50;;;;;;;;;;5092352;28;20197;-68
2022/12/14 12:15:22;;;;;;;17.33;11.50;;;;;;;;;;5092639;28;20196;-67
2022/12/14 12:17:52;;;;;;;17.00;10.93;;;;;;;;;;5092533;28;20815;-67
2022/12/14 12:20:26;;;;;;;17.10;12.20;;;;;;;;;;5096420;28;20280;-72
2022/12/14 12:22:57;;;;;;;16.38;12.38;;;;;;;;;;5096265;28;20189;-67
2022/12/14 12:25:25;;;;;;;17.45;12.10;;;;;;;;;;5096075;28;20220;-74
2022/12/14 12:27:59;;;;;;;19.27;12.98;;;;;;;;;;5096432;28;20275;-61
2022/12/14 12:30:27;;;;;;;20.08;12.60;;;;;;;;;;5096257;28;20189;-61
2022/12/14 12:32:55;;;;;;;22.95;12.63;;;;;;;;;;5096238;28;20408;-63
2022/12/14 12:35:24;;;;;;;18.75;11.90;;;;;;;;;;5096004;28;20710;-72
2022/12/14 12:37:55;;;;;;;19.55;12.23;;;;;;;;;;5095972;28;20618;-68
2022/12/14 12:40:26;;;;;;;19.73;10.88;;;;;;;;;;5096205;28;20193;-69
2022/12/14 12:42:54;;;;;;;21.05;12.15;;;;;;;;;;5096020;28;20287;-62
2022/12/14 12:45:23;;;;;;;18.83;12.45;;;;;;;;;;5109881;28;20647;-55
2022/12/14 12:47:51;;;;;;;16.35;11.40;;;;;;;;;;5115964;28;20224;-60
2022/12/14 12:50:20;;;;;;;19.02;11.48;;;;;;;;;;5115651;28;20279;-68
2022/12/14 12:52:51;;;;;;;20.80;11.65;;;;;;;;;;5104200;28;20260;-63
2022/12/14 12:55:19;;;;;;;23.85;15.15;;;;;;;;;;5095063;28;20880;-66
2022/12/14 12:57:49;;;;;;;20.25;14.25;;;;;;;;;;5095623;28;20189;-74
2022/12/14 13:00:17;;;;;;;21.35;14.07;;;;;;;;;;5095627;28;20193;-60
2022/12/14 13:02:46;;;;;;;21.13;13.15;;;;;;;;;;5095517;28;20656;-68
2022/12/14 13:05:14;;;;;;;20.80;13.18;;;;;;;;;;5095730;28;20189;-70
2022/12/14 13:07:43;;;;;;;17.73;11.95;;;;;;;;;;5095158;28;20227;-71
2022/12/14 13:10:15;;;;;;;17.25;12.55;;;;;;;;;;5095566;28;20276;-69
2022/12/14 13:12:45;;;;;;;17.27;12.02;;;;;;;;;;5097891;28;20191;-69
2022/12/14 13:15:18;;;;;;;18.88;12.43;;;;;;;;;;5115196;28;20192;-68
2022/12/14 13:17:47;;;;;;;24.80;13.00;;;;;;;;;;5115544;28;20196;-68
2022/12/14 13:20:17;;;;;;;19.60;12.70;;;;;;;;;;5115722;28;20287;-69
2022/12/14 13:22:45;;;;;;;19.77;13.30;;;;;;;;;;5115685;28;20184;-68
2022/12/14 13:25:15;;;;;;;20.92;12.60;;;;;;;;;;5115345;28;20615;-66
2022/12/14 13:27:55;;;;;;;19.73;13.40;;;;;;;;;;5115344;28;20212;-65
2022/12/14 13:30:28;;;;;;;24.13;13.13;;;;;;;;;;5115656;28;20194;-66
2022/12/14 13:33:12;;;;;;;20.92;12.52;;;;;;;;;;5115474;28;20303;-74
2022/12/14 13:35:49;;;;;;;18.90;12.23;;;;;;;;;;5064702;28;20635;-68
2022/12/14 13:38:22;;;;;;;21.52;13.00;;;;;;;;;;5115261;28;20192;-67
2022/12/14 13:41:04;;;;;;;18.08;11.48;;;;;;;;;;5115416;28;20192;-63
2022/12/14 13:43:40;;;;;;;17.33;12.02;;;;;;;;;;5111370;28;20188;-66
2022/12/14 13:46:13;;;;;;;22.15;12.35;;;;;;;;;;5114445;28;20234;-64
2022/12/14 13:48:43;;;;;;;19.58;12.23;;;;;;;;;;5114837;28;20731;-61
2022/12/14 13:51:17;;;;;;;18.95;12.15;;;;;;;;;;5115056;28;20192;-59
2022/12/14 13:53:46;;;;;;;22.60;15.68;;;;;;;;;;5115121;28;20194;-61
2022/12/14 13:56:19;;;;;;;24.27;14.93;;;;;;;;;;5114762;28;20196;-62
2022/12/14 13:58:47;;;;;;;22.33;14.68;;;;;;;;;;5114598;28;20207;-61
2022/12/14 14:01:16;;;;;;;34.40;19.63;;;;;;;;;;5115087;28;20542;-66
2022/12/14 14:03:44;;;;;;;29.02;17.40;;;;;;;;;;5114891;28;20189;-60
2022/12/14 14:06:23;;;;;;;29.20;16.20;;;;;;;;;;5114609;28;20304;-60
2022/12/14 14:08:50;;;;;;;25.13;16.90;;;;;;;;;;5114666;28;20192;-62
2022/12/14 14:11:35;;;;;;;21.92;15.07;;;;;;;;;;5107930;28;20295;-60
2022/12/14 14:14:17;;;;;;;21.77;16.52;;;;;;;;;;5114498;28;20194;-62
2022/12/14 14:16:47;;;;;;;20.20;13.70;;;;;;;;;;5110802;28;20195;-62
2022/12/14 14:19:19;;;;;;;18.13;12.55;;;;;;;;;;5114560;28;20275;-62
2022/12/14 14:22:00;;;;;;;20.45;13.25;;;;;;;;;;5114436;28;20184;-65
2022/12/14 14:24:28;;;;;;;20.77;14.27;;;;;;;;;;5114571;28;20615;-65
2022/12/14 14:26:59;;;;;;;23.42;13.05;;;;;;;;;;5114496;28;20222;-65
2022/12/14 14:29:27;;;;;;;19.67;13.02;;;;;;;;;;5114344;28;20290;-60
2022/12/14 14:31:57;;;;;;;23.60;14.13;;;;;;;;;;5104665;28;20184;-63
2022/12/14 14:34:34;;;;;;;21.33;14.27;;;;;;;;;;5093799;28;20605;-65
2022/12/14 14:37:01;;;;;;;18.52;13.95;;;;;;;;;;5091990;28;20557;-66
2022/12/14 14:39:34;;;;;;;21.55;14.88;;;;;;;;;;5093419;28;20279;-66
2022/12/14 14:42:02;;;;;;;20.50;13.55;;;;;;;;;;5092936;28;20197;-65
2022/12/14 14:44:34;;;;;;;20.70;13.40;;;;;;;;;;5093655;28;20191;-66